MSC Mandraki — SZUH — position and weather

sailwx.info

Track history (hours):
 
Tides and Currents Weather Stations Pressure Air Temp Water Temp Dewpoint Dewpoint Depression Visibility Wind Speed Wind Dir Waves Ship Positions

MSC Mandraki

Last reported at 2014-Jul-29 14:28 UTC. Time now 2014-Jul-29 14:45 UTC.
Position N 53°32' E 009°54'.

Length 294 m; draft 10.7 m.

Type: Ship. MMSI: 240265000.

Date/timePositionNaut miles runAvg speedWind from/ knotsBaromVisibWave heightAir tempDewpointWater temp
2014-Jul-29 14:28N 53°32' E 009°54'0 0.0
2014-Jul-29 13:31N 53°32' E 009°54'0 0.0
2014-Jul-29 12:31N 53°32' E 009°54'0 0.0
2014-Jul-29 11:28N 53°32' E 009°54'0 0.0
2014-Jul-29 10:28N 53°32' E 009°54'0 0.0
2014-Jul-29 09:33N 53°32' E 009°54'3 3.0
2014-Jul-29 08:33N 53°33' E 009°50'8 7.9
2014-Jul-29 07:33N 53°35' E 009°37'1010.4
2014-Jul-29 06:33N 53°44' E 009°27'1311.7
2014-Jul-29 05:28N 53°53' E 009°12'7 8.2
2014-Jul-29 04:33N 53°51' E 008°60'1110.9
2014-Jul-29 03:33N 53°54' E 008°42'1413.6
2014-Jul-29 02:33N 53°59' E 008°21'1111.3
2014-Jul-29 01:33N 53°58' E 008°02'6 6.1
2014-Jul-29 00:32N 53°55' E 007°52'0 0.0
2014-Jul-28 22:32N 53°55' E 007°52'0 0.0
2014-Jul-28 21:32N 53°55' E 007°52'0 0.0
2014-Jul-28 20:23N 53°55' E 007°52'0 0.1
2014-Jul-28 19:32N 53°55' E 007°52'0 0.1
2014-Jul-28 18:32N 53°55' E 007°52'0 0.1
2014-Jul-28 17:29N 53°55' E 007°52'0 0.0
2014-Jul-28 16:33N 53°55' E 007°52'6 5.9
2014-Jul-28 15:33N 53°51' E 007°59'1717.6
2014-Jul-28 14:33N 53°41' E 008°22'9 8.7
2014-Jul-28 13:33N 53°34' E 008°32'0 0.0
2014-Jul-28 12:33N 53°34' E 008°32'0 0.0
2014-Jul-28 11:33N 53°34' E 008°32'0 0.0
2014-Jul-28 10:33N 53°34' E 008°32'0 0.0
2014-Jul-28 09:33N 53°34' E 008°32'0 0.0
2014-Jul-28 08:33N 53°34' E 008°32'0 0.0
2014-Jul-28 07:33N 53°34' E 008°32'0 0.0
2014-Jul-28 06:33N 53°34' E 008°32'0 0.0
2014-Jul-28 05:33N 53°34' E 008°32'0 0.0
2014-Jul-28 04:33N 53°34' E 008°32'0 0.0
2014-Jul-28 03:33N 53°34' E 008°32'0 0.0
2014-Jul-28 02:33N 53°34' E 008°32'0 0.0
2014-Jul-28 01:33N 53°34' E 008°32'0 0.0
2014-Jul-28 00:33N 53°34' E 008°32'0 0.0
2014-Jul-27 23:33N 53°34' E 008°32'0 0.0
2014-Jul-27 22:33N 53°34' E 008°32'0 0.0
2014-Jul-27 21:33N 53°34' E 008°32'0 0.0
2014-Jul-27 20:33N 53°34' E 008°32'0 0.0
2014-Jul-27 19:33N 53°34' E 008°32'0 0.0
2014-Jul-27 18:33N 53°34' E 008°32'0 0.0
2014-Jul-27 17:33N 53°34' E 008°32'0 0.0
2014-Jul-27 16:33N 53°34' E 008°32'0 0.0
2014-Jul-27 15:33N 53°34' E 008°32'0 0.0
2014-Jul-27 14:33N 53°34' E 008°32'1 0.7
2014-Jul-27 13:33N 53°35' E 008°32'1110.8
2014-Jul-27 12:34N 53°42' E 008°19'1514.7
2014-Jul-27 11:33N 53°51' E 007°59'1312.0
2014-Jul-27 10:28N 53°54' E 007°37'5418.0
2014-Jul-27 07:26N 53°42' E 006°07'1618.5
2014-Jul-27 06:34N 53°37' E 005°41'1918.4
2014-Jul-27 05:33N 53°31' E 005°11'1818.5
2014-Jul-27 04:34N 53°23' E 004°43'1918.5
2014-Jul-27 03:32N 53°06' E 004°29'1918.0
2014-Jul-27 02:30N 52°50' E 004°13'1717.7
2014-Jul-27 01:33N 52°37' E 003°56'1817.8
2014-Jul-27 00:34N 52°25' E 003°35'1717.5
2014-Jul-26 23:33N 52°12' E 003°16'1716.5
2014-Jul-26 22:33N 52°00' E 002°57'2316.6
2014-Jul-26 21:11N 51°55' E 002°21'1015.9
2014-Jul-26 20:34N 51°52' E 002°06'1515.3
2014-Jul-26 19:34N 51°50' E 001°41'1211.6
2014-Jul-26 18:34N 51°56' E 001°25'5 4.6
2014-Jul-26 17:32N 51°58' E 001°18'0 0.0
2014-Jul-26 16:32N 51°58' E 001°18'0 0.0
2014-Jul-26 15:33N 51°58' E 001°18'0 0.0
2014-Jul-26 14:32N 51°58' E 001°18'0 0.0
2014-Jul-26 13:33N 51°58' E 001°18'0 0.0
2014-Jul-26 12:32N 51°58' E 001°18'0 0.0
2014-Jul-26 11:32N 51°58' E 001°18'0 0.0
2014-Jul-26 10:32N 51°58' E 001°18'0 0.0
2014-Jul-26 09:32N 51°58' E 001°18'0 0.0
2014-Jul-26 08:32N 51°58' E 001°18'0 0.0
2014-Jul-26 07:33N 51°58' E 001°18'0 0.0
2014-Jul-26 06:32N 51°58' E 001°18'0 0.0
2014-Jul-26 05:32N 51°58' E 001°18'0 0.0
2014-Jul-26 04:32N 51°58' E 001°18'0 0.0
2014-Jul-26 03:32N 51°58' E 001°18'0 0.0
2014-Jul-26 02:32N 51°58' E 001°18'0 0.0
2014-Jul-26 01:29N 51°58' E 001°18'0 0.0
2014-Jul-26 00:32N 51°58' E 001°18'0 0.0
2014-Jul-25 23:32N 51°58' E 001°18'0 0.0
2014-Jul-25 22:32N 51°58' E 001°18'0 0.0
2014-Jul-25 21:33N 51°58' E 001°18'2 2.4
2014-Jul-25 20:33N 51°55' E 001°19'1010.4
2014-Jul-25 19:33N 51°52' E 001°35'3 3.1
2014-Jul-25 18:31N 51°53' E 001°40'0 0.0
2014-Jul-25 17:34N 51°53' E 001°40'0 0.2
2014-Jul-25 16:34N 51°53' E 001°40'0 0.2
2014-Jul-25 15:34N 51°53' E 001°40'5 4.9
2014-Jul-25 14:34N 51°51' E 001°47'1616.1
2014-Jul-25 13:33N 51°35' E 001°51'1414.2
2014-Jul-25 12:33N 51°22' E 002°00'1717.4
2014-Jul-25 11:33N 51°08' E 001°43'1717.1
2014-Jul-25 10:33N 50°55' E 001°25'1716.0
2014-Jul-25 09:28N 50°40' E 001°14'1516.1
2014-Jul-25 08:33N 50°30' E 000°57'1616.2
2014-Jul-25 07:33N 50°24' E 000°33'1716.6
2014-Jul-25 06:34N 50°18' E 000°09'1414.3
2014-Jul-25 05:33N 50°06' W 000°02'3014.8
2014-Jul-25 03:33N 49°37' W 000°11'1211.6
2014-Jul-25 02:33N 49°30' E 000°03'4 3.6
2014-Jul-25 01:33N 49°28' E 000°08'0 0.0
2014-Jul-25 00:33N 49°28' E 000°08'0 0.0
2014-Jul-24 23:33N 49°28' E 000°08'0 0.0
2014-Jul-24 22:33N 49°28' E 000°08'0 0.0
2014-Jul-24 21:33N 49°28' E 000°08'0 0.0
2014-Jul-24 20:33N 49°28' E 000°08'0 0.0
2014-Jul-24 19:33N 49°28' E 000°08'0 0.0
2014-Jul-24 18:33N 49°28' E 000°08'0 0.0
2014-Jul-24 17:33N 49°28' E 000°08'0 0.0
2014-Jul-24 16:33N 49°28' E 000°08'0 0.0
2014-Jul-24 15:33N 49°28' E 000°08'0 0.0
2014-Jul-24 14:33N 49°28' E 000°08'0 0.0
2014-Jul-24 13:34N 49°28' E 000°08'6 6.4
2014-Jul-24 12:33N 49°30' W 000°01'1515.3
2014-Jul-24 11:33N 49°36' W 000°23'1515.5
2014-Jul-24 10:33N 49°42' W 000°45'1616.1
2014-Jul-24 09:33N 49°48' W 001°08'1716.8
2014-Jul-24 08:33N 49°53' W 001°33'15817.6
2014-Jul-23 23:33N 48°55' W 005°19'5116.6
2014-Jul-23 20:30N 48°13' W 006°02'1616.6
2014-Jul-23 19:33N 47°59' W 006°13'2016.2
2014-Jul-23 18:20N 47°42' W 006°27'56416.2
2014-Jul-22 07:29N 38°37' W 009°49'1616.7
2014-Jul-22 06:33N 38°26' W 009°35'1716.9
2014-Jul-22 05:33N 38°13' W 009°21'1717.4
2014-Jul-22 04:33N 38°01' W 009°05'1313.1
2014-Jul-22 03:33N 37°55' W 008°50'1 0.8
2014-Jul-22 02:31N 37°56' W 008°51'0 0.0
2014-Jul-22 01:31N 37°56' W 008°51'0 0.0
2014-Jul-22 00:31N 37°56' W 008°51'0 0.0
2014-Jul-21 23:31N 37°56' W 008°51'0 0.0
2014-Jul-21 22:31N 37°56' W 008°51'0 0.0
2014-Jul-21 21:31N 37°56' W 008°51'0 0.0
2014-Jul-21 20:31N 37°56' W 008°51'0 0.0
2014-Jul-21 20:16N 37°56' W 008°51'0 0.0
2014-Jul-21 19:31N 37°56' W 008°51'0 0.0
2014-Jul-21 18:31N 37°56' W 008°51'0 0.0
2014-Jul-21 17:31N 37°56' W 008°51'0 0.0
2014-Jul-21 16:31N 37°56' W 008°51'0 0.0
2014-Jul-21 15:31N 37°56' W 008°51'0 0.0
2014-Jul-21 14:33N 37°56' W 008°51'1 0.6
2014-Jul-21 13:33N 37°55' W 008°50'9 9.2
2014-Jul-21 12:33N 37°47' W 008°56'1716.7
2014-Jul-21 11:33N 37°32' W 009°04'1717.2
2014-Jul-21 10:33N 37°16' W 009°13'1717.2
2014-Jul-21 09:33N 37°00' W 009°21'3715.3
2014-Jul-21 07:08N 36°37' W 008°44'1016.5
2014-Jul-21 06:33N 36°35' W 008°33'1717.2
2014-Jul-21 05:34N 36°29' W 008°13'13816.4
2014-Jul-20 21:09N 35°60' W 005°25'29315.7
2014-Jul-20 02:29N 36°49' E 000°34'5115.0
2014-Jul-19 23:06N 36°58' E 001°36'1515.9
2014-Jul-19 22:10N 37°01' E 001°54'5916.4
2014-Jul-19 18:33N 37°10' E 003°08'1917.0
2014-Jul-19 17:25N 37°13' E 003°32'1517.5
2014-Jul-19 16:33N 37°16' E 003°50'1817.5
2014-Jul-19 15:33N 37°18' E 004°12'1817.7
2014-Jul-19 14:33N 37°20' E 004°34'  
Track history (hours):
 
Tides and Currents Weather Stations Pressure Air Temp Water Temp Dewpoint Dewpoint Depression Visibility Wind Speed Wind Dir Waves Ship Positions

MSC Mandraki

Last reported at 2014-Jul-29 14:28 UTC. Time now 2014-Jul-29 14:45 UTC.
Position N 53°32' E 009°54'.

Length 294 m; draft 10.7 m.

Type: Ship. MMSI: 240265000.

Date/timePositionNaut miles runAvg speedWind from/ knotsBaromVisibWave heightAir tempDewpointWater temp
2014-Jul-29 14:28N 53°32' E 009°54'0 0.0
2014-Jul-29 13:31N 53°32' E 009°54'0 0.0
2014-Jul-29 12:31N 53°32' E 009°54'0 0.0
2014-Jul-29 11:28N 53°32' E 009°54'0 0.0
2014-Jul-29 10:28N 53°32' E 009°54'0 0.0
2014-Jul-29 09:33N 53°32' E 009°54'3 3.0
2014-Jul-29 08:33N 53°33' E 009°50'8 7.9
2014-Jul-29 07:33N 53°35' E 009°37'1010.4
2014-Jul-29 06:33N 53°44' E 009°27'1311.7
2014-Jul-29 05:28N 53°53' E 009°12'7 8.2
2014-Jul-29 04:33N 53°51' E 008°60'1110.9
2014-Jul-29 03:33N 53°54' E 008°42'1413.6
2014-Jul-29 02:33N 53°59' E 008°21'1111.3
2014-Jul-29 01:33N 53°58' E 008°02'6 6.1
2014-Jul-29 00:32N 53°55' E 007°52'0 0.0
2014-Jul-28 22:32N 53°55' E 007°52'0 0.0
2014-Jul-28 21:32N 53°55' E 007°52'0 0.0
2014-Jul-28 20:23N 53°55' E 007°52'0 0.1
2014-Jul-28 19:32N 53°55' E 007°52'0 0.1
2014-Jul-28 18:32N 53°55' E 007°52'0 0.1
2014-Jul-28 17:29N 53°55' E 007°52'0 0.0
2014-Jul-28 16:33N 53°55' E 007°52'6 5.9
2014-Jul-28 15:33N 53°51' E 007°59'1717.6
2014-Jul-28 14:33N 53°41' E 008°22'9 8.7
2014-Jul-28 13:33N 53°34' E 008°32'0 0.0
2014-Jul-28 12:33N 53°34' E 008°32'0 0.0
2014-Jul-28 11:33N 53°34' E 008°32'0 0.0
2014-Jul-28 10:33N 53°34' E 008°32'0 0.0
2014-Jul-28 09:33N 53°34' E 008°32'0 0.0
2014-Jul-28 08:33N 53°34' E 008°32'0 0.0
2014-Jul-28 07:33N 53°34' E 008°32'0 0.0
2014-Jul-28 06:33N 53°34' E 008°32'0 0.0
2014-Jul-28 05:33N 53°34' E 008°32'0 0.0
2014-Jul-28 04:33N 53°34' E 008°32'0 0.0
2014-Jul-28 03:33N 53°34' E 008°32'0 0.0
2014-Jul-28 02:33N 53°34' E 008°32'0 0.0
2014-Jul-28 01:33N 53°34' E 008°32'0 0.0
2014-Jul-28 00:33N 53°34' E 008°32'0 0.0
2014-Jul-27 23:33N 53°34' E 008°32'0 0.0
2014-Jul-27 22:33N 53°34' E 008°32'0 0.0
2014-Jul-27 21:33N 53°34' E 008°32'0 0.0
2014-Jul-27 20:33N 53°34' E 008°32'0 0.0
2014-Jul-27 19:33N 53°34' E 008°32'0 0.0
2014-Jul-27 18:33N 53°34' E 008°32'0 0.0
2014-Jul-27 17:33N 53°34' E 008°32'0 0.0
2014-Jul-27 16:33N 53°34' E 008°32'0 0.0
2014-Jul-27 15:33N 53°34' E 008°32'0 0.0
2014-Jul-27 14:33N 53°34' E 008°32'1 0.7
2014-Jul-27 13:33N 53°35' E 008°32'1110.8
2014-Jul-27 12:34N 53°42' E 008°19'1514.7
2014-Jul-27 11:33N 53°51' E 007°59'1312.0
2014-Jul-27 10:28N 53°54' E 007°37'5418.0
2014-Jul-27 07:26N 53°42' E 006°07'1618.5
2014-Jul-27 06:34N 53°37' E 005°41'1918.4
2014-Jul-27 05:33N 53°31' E 005°11'1818.5
2014-Jul-27 04:34N 53°23' E 004°43'1918.5
2014-Jul-27 03:32N 53°06' E 004°29'1918.0
2014-Jul-27 02:30N 52°50' E 004°13'1717.7
2014-Jul-27 01:33N 52°37' E 003°56'1817.8
2014-Jul-27 00:34N 52°25' E 003°35'1717.5
2014-Jul-26 23:33N 52°12' E 003°16'1716.5
2014-Jul-26 22:33N 52°00' E 002°57'2316.6
2014-Jul-26 21:11N 51°55' E 002°21'1015.9
2014-Jul-26 20:34N 51°52' E 002°06'1515.3
2014-Jul-26 19:34N 51°50' E 001°41'1211.6
2014-Jul-26 18:34N 51°56' E 001°25'5 4.6
2014-Jul-26 17:32N 51°58' E 001°18'0 0.0
2014-Jul-26 16:32N 51°58' E 001°18'0 0.0
2014-Jul-26 15:33N 51°58' E 001°18'0 0.0
2014-Jul-26 14:32N 51°58' E 001°18'0 0.0
2014-Jul-26 13:33N 51°58' E 001°18'0 0.0
2014-Jul-26 12:32N 51°58' E 001°18'0 0.0
2014-Jul-26 11:32N 51°58' E 001°18'0 0.0
2014-Jul-26 10:32N 51°58' E 001°18'0 0.0
2014-Jul-26 09:32N 51°58' E 001°18'0 0.0
2014-Jul-26 08:32N 51°58' E 001°18'0 0.0
2014-Jul-26 07:33N 51°58' E 001°18'0 0.0
2014-Jul-26 06:32N 51°58' E 001°18'0 0.0
2014-Jul-26 05:32N 51°58' E 001°18'0 0.0
2014-Jul-26 04:32N 51°58' E 001°18'0 0.0
2014-Jul-26 03:32N 51°58' E 001°18'0 0.0
2014-Jul-26 02:32N 51°58' E 001°18'0 0.0
2014-Jul-26 01:29N 51°58' E 001°18'0 0.0
2014-Jul-26 00:32N 51°58' E 001°18'0 0.0
2014-Jul-25 23:32N 51°58' E 001°18'0 0.0
2014-Jul-25 22:32N 51°58' E 001°18'0 0.0
2014-Jul-25 21:33N 51°58' E 001°18'2 2.4
2014-Jul-25 20:33N 51°55' E 001°19'1010.4
2014-Jul-25 19:33N 51°52' E 001°35'3 3.1
2014-Jul-25 18:31N 51°53' E 001°40'0 0.0
2014-Jul-25 17:34N 51°53' E 001°40'0 0.2
2014-Jul-25 16:34N 51°53' E 001°40'0 0.2
2014-Jul-25 15:34N 51°53' E 001°40'5 4.9
2014-Jul-25 14:34N 51°51' E 001°47'1616.1
2014-Jul-25 13:33N 51°35' E 001°51'1414.2
2014-Jul-25 12:33N 51°22' E 002°00'1717.4
2014-Jul-25 11:33N 51°08' E 001°43'1717.1
2014-Jul-25 10:33N 50°55' E 001°25'1716.0
2014-Jul-25 09:28N 50°40' E 001°14'1516.1
2014-Jul-25 08:33N 50°30' E 000°57'1616.2
2014-Jul-25 07:33N 50°24' E 000°33'1716.6
2014-Jul-25 06:34N 50°18' E 000°09'1414.3
2014-Jul-25 05:33N 50°06' W 000°02'3014.8
2014-Jul-25 03:33N 49°37' W 000°11'1211.6
2014-Jul-25 02:33N 49°30' E 000°03'4 3.6
2014-Jul-25 01:33N 49°28' E 000°08'0 0.0
2014-Jul-25 00:33N 49°28' E 000°08'0 0.0
2014-Jul-24 23:33N 49°28' E 000°08'0 0.0
2014-Jul-24 22:33N 49°28' E 000°08'0 0.0
2014-Jul-24 21:33N 49°28' E 000°08'0 0.0
2014-Jul-24 20:33N 49°28' E 000°08'0 0.0
2014-Jul-24 19:33N 49°28' E 000°08'0 0.0
2014-Jul-24 18:33N 49°28' E 000°08'0 0.0
2014-Jul-24 17:33N 49°28' E 000°08'0 0.0
2014-Jul-24 16:33N 49°28' E 000°08'0 0.0
2014-Jul-24 15:33N 49°28' E 000°08'0 0.0
2014-Jul-24 14:33N 49°28' E 000°08'0 0.0
2014-Jul-24 13:34N 49°28' E 000°08'6 6.4
2014-Jul-24 12:33N 49°30' W 000°01'1515.3
2014-Jul-24 11:33N 49°36' W 000°23'1515.5
2014-Jul-24 10:33N 49°42' W 000°45'1616.1
2014-Jul-24 09:33N 49°48' W 001°08'1716.8
2014-Jul-24 08:33N 49°53' W 001°33'15817.6
2014-Jul-23 23:33N 48°55' W 005°19'5116.6
2014-Jul-23 20:30N 48°13' W 006°02'1616.6
2014-Jul-23 19:33N 47°59' W 006°13'2016.2
2014-Jul-23 18:20N 47°42' W 006°27'56416.2
2014-Jul-22 07:29N 38°37' W 009°49'1616.7
2014-Jul-22 06:33N 38°26' W 009°35'1716.9
2014-Jul-22 05:33N 38°13' W 009°21'1717.4
2014-Jul-22 04:33N 38°01' W 009°05'1313.1
2014-Jul-22 03:33N 37°55' W 008°50'1 0.8
2014-Jul-22 02:31N 37°56' W 008°51'0 0.0
2014-Jul-22 01:31N 37°56' W 008°51'0 0.0
2014-Jul-22 00:31N 37°56' W 008°51'0 0.0
2014-Jul-21 23:31N 37°56' W 008°51'0 0.0
2014-Jul-21 22:31N 37°56' W 008°51'0 0.0
2014-Jul-21 21:31N 37°56' W 008°51'0 0.0
2014-Jul-21 20:31N 37°56' W 008°51'0 0.0
2014-Jul-21 20:16N 37°56' W 008°51'0 0.0
2014-Jul-21 19:31N 37°56' W 008°51'0 0.0
2014-Jul-21 18:31N 37°56' W 008°51'0 0.0
2014-Jul-21 17:31N 37°56' W 008°51'0 0.0
2014-Jul-21 16:31N 37°56' W 008°51'0 0.0
2014-Jul-21 15:31N 37°56' W 008°51'0 0.0
2014-Jul-21 14:33N 37°56' W 008°51'1 0.6
2014-Jul-21 13:33N 37°55' W 008°50'9 9.2
2014-Jul-21 12:33N 37°47' W 008°56'1716.7
2014-Jul-21 11:33N 37°32' W 009°04'1717.2
2014-Jul-21 10:33N 37°16' W 009°13'1717.2
2014-Jul-21 09:33N 37°00' W 009°21'3715.3
2014-Jul-21 07:08N 36°37' W 008°44'1016.5
2014-Jul-21 06:33N 36°35' W 008°33'1717.2
2014-Jul-21 05:34N 36°29' W 008°13'13816.4
2014-Jul-20 21:09N 35°60' W 005°25'29315.7
2014-Jul-20 02:29N 36°49' E 000°34'5115.0
2014-Jul-19 23:06N 36°58' E 001°36'1515.9
2014-Jul-19 22:10N 37°01' E 001°54'5916.4
2014-Jul-19 18:33N 37°10' E 003°08'1917.0
2014-Jul-19 17:25N 37°13' E 003°32'1517.5
2014-Jul-19 16:33N 37°16' E 003°50'1817.5
2014-Jul-19 15:33N 37°18' E 004°12'1817.7
2014-Jul-19 14:33N 37°20' E 004°34'  

Dump ship's entire track history